Time;durP1;ratioP1;P1;durP2;ratioP2;P2;SDS_P1;SDS_P2;PMS_P1;PMS_P2;Temp;Humidity;BMP_temperature;BMP_pressure;BME280_temperature;BME280_humidity;BME280_pressure;Samples;Min_cycle;Max_cycle;Signal;HPM_P1;HPM_P2
2021/06/28 00:00:41;;;;;;;;;;;;;;;24.15;31.28;82484.81;2086793;28;908;-69
2021/06/28 00:01:41;;;;;;;;;;;;;;;24.15;31.18;82474.81;2078651;28;1128;-70
2021/06/28 00:02:41;;;;;;;;;;;;;;;24.15;31.06;82492.81;2071221;28;893;-68
2021/06/28 00:03:42;;;;;;;;;;;;;;;24.15;31.24;82540.81;2079751;28;1490;-70
2021/06/28 00:04:42;;;;;;;;;;;;;;;24.15;31.30;82490.81;2064074;28;1292;-70
2021/06/28 00:05:42;;;;;;;;;;;;;;;24.15;31.28;82500.81;2071790;28;1210;-70
2021/06/28 00:06:42;;;;;;;;;;;;;;;24.15;31.09;82470.81;2088342;28;1235;-69
2021/06/28 00:07:43;;;;;;;;;;;;;;;24.15;31.11;82420.81;2080289;28;1271;-70
2021/06/28 00:08:43;;;;;;;;;;;;;;;24.15;31.11;82484.81;2064114;28;1186;-70
2021/06/28 00:09:43;;;;;;;;;;;;;;;24.15;31.33;82486.81;2063883;28;1302;-69
2021/06/28 00:10:43;;;;;;;;;;;;;;;24.15;31.03;82482.81;2063945;28;1345;-70
2021/06/28 00:11:43;;;;;;;;;;;;;;;24.15;31.03;82480.81;2071870;28;1147;-69
2021/06/28 00:12:44;;;;;;;;;;;;;;;24.15;31.54;82520.81;2080263;28;1300;-70
2021/06/28 00:13:44;;;;;;;;;;;;;;;24.15;31.36;82514.81;2070620;28;1257;-70
2021/06/28 00:14:44;;;;;;;;;;;;;;;24.15;31.28;82496.81;2078558;28;1003;-70
2021/06/28 00:15:44;;;;;;;;;;;;;;;24.15;31.44;82564.81;2086804;28;1274;-69
2021/06/28 00:16:44;;;;;;;;;;;;;;;24.15;31.56;82548.81;2087025;28;817;-70
2021/06/28 00:17:45;;;;;;;;;;;;;;;24.15;31.31;82514.81;2086835;28;776;-69
2021/06/28 00:18:45;;;;;;;;;;;;;;;24.15;31.42;82546.81;2086868;28;1979;-69
2021/06/28 00:19:45;;;;;;;;;;;;;;;24.15;31.30;82544.81;2086757;28;888;-70
2021/06/28 00:20:45;;;;;;;;;;;;;;;24.15;31.45;82556.81;2087579;28;590;-70
2021/06/28 00:21:45;;;;;;;;;;;;;;;24.15;31.58;82580.81;2078495;28;1262;-70
2021/06/28 00:22:46;;;;;;;;;;;;;;;24.15;31.58;82612.84;2078684;28;675;-70
2021/06/28 00:23:46;;;;;;;;;;;;;;;24.15;31.68;82618.84;2086577;28;821;-70
2021/06/28 00:24:46;;;;;;;;;;;;;;;24.15;31.51;82568.81;2078585;28;872;-70
2021/06/28 00:25:46;;;;;;;;;;;;;;;24.15;31.64;82594.81;2078158;28;1141;-70
2021/06/28 00:26:47;;;;;;;;;;;;;;;24.15;31.49;82560.81;2070295;28;1200;-70
2021/06/28 00:27:47;;;;;;;;;;;;;;;24.15;31.51;82572.81;2078440;28;1015;-70
2021/06/28 00:28:47;;;;;;;;;;;;;;;24.15;31.70;82586.81;2078298;28;1348;-70
2021/06/28 00:29:47;;;;;;;;;;;;;;;24.15;31.68;82622.84;2078742;28;872;-70
2021/06/28 00:30:48;;;;;;;;;;;;;;;24.15;31.68;82604.81;2086559;28;765;-70
2021/06/28 00:31:51;;;;;;;;;;;;;;;24.15;31.65;82628.84;2078866;28;912;-70
2021/06/28 00:32:51;;;;;;;;;;;;;;;24.15;31.50;82594.81;2078912;28;900;-70
2021/06/28 00:33:51;;;;;;;;;;;;;;;24.15;31.75;82632.84;2078986;28;975;-70
2021/06/28 00:34:51;;;;;;;;;;;;;;;24.15;31.63;82680.84;2078554;28;1064;-70
2021/06/28 00:35:52;;;;;;;;;;;;;;;24.15;31.89;82714.84;2078046;28;1285;-69
2021/06/28 00:36:52;;;;;;;;;;;;;;;24.15;31.82;82724.84;2086695;28;1378;-69
2021/06/28 00:37:52;;;;;;;;;;;;;;;24.15;31.79;82700.84;2078741;28;940;-69
2021/06/28 00:38:52;;;;;;;;;;;;;;;24.15;31.75;82674.84;2078632;28;1910;-69
2021/06/28 00:39:52;;;;;;;;;;;;;;;24.15;31.80;82726.84;2096715;28;759;-70
2021/06/28 00:40:53;;;;;;;;;;;;;;;24.15;31.88;82738.84;2088610;28;1239;-69
2021/06/28 00:41:53;;;;;;;;;;;;;;;24.15;31.77;82672.84;2080360;28;1403;-69
2021/06/28 00:42:53;;;;;;;;;;;;;;;24.15;31.68;82630.84;2088344;28;857;-69
2021/06/28 00:43:53;;;;;;;;;;;;;;;24.15;31.63;82634.84;2088170;28;841;-69
2021/06/28 00:44:53;;;;;;;;;;;;;;;24.15;31.54;82676.84;2080184;28;1035;-69
2021/06/28 00:45:53;;;;;;;;;;;;;;;24.15;31.76;82702.84;2079629;28;1215;-69
2021/06/28 00:46:54;;;;;;;;;;;;;;;24.15;31.70;82666.84;2088312;28;737;-69
2021/06/28 00:47:55;;;;;;;;;;;;;;;24.15;31.58;82680.84;2088412;28;585;-69
2021/06/28 00:48:56;;;;;;;;;;;;;;;24.15;31.63;82696.84;2088320;28;857;-70
2021/06/28 00:49:56;;;;;;;;;;;;;;;24.15;31.77;82698.84;2079941;28;1211;-70
2021/06/28 00:50:57;;;;;;;;;;;;;;;24.15;31.98;82748.84;2080006;28;905;-70
2021/06/28 00:51:57;;;;;;;;;;;;;;;24.15;31.95;82722.84;2080958;28;864;-70
2021/06/28 00:52:58;;;;;;;;;;;;;;;24.15;32.09;82738.84;2081572;28;1466;-72
2021/06/28 00:53:58;;;;;;;;;;;;;;;24.15;31.80;82712.84;2081575;28;868;-71
2021/06/28 00:54:58;;;;;;;;;;;;;;;24.15;31.83;82748.84;2081679;28;1374;-71
2021/06/28 00:56:10;;;;;;;;;;;;;;;24.15;31.72;82720.84;2072987;28;1314;-71
2021/06/28 00:57:11;;;;;;;;;;;;;;;24.15;31.85;82732.84;2074967;28;1335;-71
2021/06/28 00:58:11;;;;;;;;;;;;;;;24.15;31.83;82736.84;2066890;28;1226;-71
2021/06/28 00:59:11;;;;;;;;;;;;;;;24.15;31.89;82786.84;2081491;28;1965;-71
2021/06/28 01:00:11;;;;;;;;;;;;;;;24.15;31.85;82744.84;2073551;28;1564;-70
2021/06/28 01:01:12;;;;;;;;;;;;;;;24.15;32.05;82802.88;2065338;28;1327;-72
2021/06/28 01:02:12;;;;;;;;;;;;;;;24.15;31.96;82764.84;2081299;28;1225;-73
2021/06/28 01:03:12;;;;;;;;;;;;;;;24.15;32.10;82804.88;2071912;28;755;-71
2021/06/28 01:04:12;;;;;;;;;;;;;;;24.15;32.17;82842.88;2071971;28;865;-70
2021/06/28 01:05:16;;;;;;;;;;;;;;;24.15;32.00;82814.88;2079867;28;1218;-71
2021/06/28 01:06:16;;;;;;;;;;;;;;;24.15;32.12;82840.88;2073609;28;1383;-70
2021/06/28 01:07:17;;;;;;;;;;;;;;;24.15;32.11;82762.84;2071128;28;1988;-70
2021/06/28 01:08:17;;;;;;;;;;;;;;;24.15;32.11;82786.84;2079975;28;1203;-71
2021/06/28 01:09:17;;;;;;;;;;;;;;;24.15;32.06;82810.88;2080111;28;1132;-71
2021/06/28 01:10:18;;;;;;;;;;;;;;;24.15;32.07;82820.88;2063622;28;1255;-71
2021/06/28 01:11:18;;;;;;;;;;;;;;;24.15;32.05;82816.88;2064002;28;870;-72
2021/06/28 01:12:18;;;;;;;;;;;;;;;24.15;31.95;82800.84;2080281;28;827;-71
2021/06/28 01:13:18;;;;;;;;;;;;;;;24.15;32.21;82876.88;2080800;28;900;-71
2021/06/28 01:14:18;;;;;;;;;;;;;;;24.15;31.92;82768.84;2078601;28;988;-73
2021/06/28 01:15:19;;;;;;;;;;;;;;;24.15;32.06;82780.84;2087900;28;1209;-71
2021/06/28 01:16:19;;;;;;;;;;;;;;;24.15;32.07;82830.88;2079464;28;1332;-72
2021/06/28 01:17:19;;;;;;;;;;;;;;;24.15;32.14;82848.88;2071690;28;952;-71
2021/06/28 01:18:19;;;;;;;;;;;;;;;24.15;32.19;82850.88;2079735;28;920;-71
2021/06/28 01:19:20;;;;;;;;;;;;;;;24.15;31.96;82810.88;2088252;28;1914;-71
2021/06/28 01:20:21;;;;;;;;;;;;;;;24.15;32.29;82848.88;2079778;28;1058;-72
2021/06/28 01:21:22;;;;;;;;;;;;;;;24.15;32.03;82808.88;2071995;28;952;-72
2021/06/28 01:22:24;;;;;;;;;;;;;;;24.15;32.00;82770.84;2087962;28;723;-73
2021/06/28 01:23:27;;;;;;;;;;;;;;;24.15;31.89;82814.88;2088317;28;916;-72
2021/06/28 01:24:27;;;;;;;;;;;;;;;24.15;31.90;82794.84;2079064;28;1118;-70
2021/06/28 01:25:30;;;;;;;;;;;;;;;24.15;31.96;82782.84;2080045;28;1291;-71
2021/06/28 01:26:30;;;;;;;;;;;;;;;24.15;31.96;82792.84;2079778;28;829;-72
2021/06/28 01:27:32;;;;;;;;;;;;;;;24.15;31.98;82822.88;2088556;28;979;-71
2021/06/28 01:28:32;;;;;;;;;;;;;;;24.15;31.93;82858.88;2088032;28;1199;-72
2021/06/28 01:29:32;;;;;;;;;;;;;;;24.15;32.24;82894.88;2080233;28;955;-71
2021/06/28 01:30:32;;;;;;;;;;;;;;;24.15;32.12;82836.88;2088245;28;877;-72
2021/06/28 01:31:32;;;;;;;;;;;;;;;24.15;32.05;82870.88;2080081;28;695;-71
2021/06/28 01:32:33;;;;;;;;;;;;;;;24.15;32.06;82818.88;2072062;28;845;-72
2021/06/28 01:33:33;;;;;;;;;;;;;;;24.15;31.96;82874.88;2079830;28;953;-72
2021/06/28 01:34:33;;;;;;;;;;;;;;;24.15;32.12;82888.88;2079986;28;901;-72
2021/06/28 01:35:33;;;;;;;;;;;;;;;24.15;32.39;82932.88;2079842;28;1171;-71
2021/06/28 01:36:33;;;;;;;;;;;;;;;24.15;32.37;82964.91;2087952;28;778;-72
2021/06/28 01:37:34;;;;;;;;;;;;;;;24.15;32.23;82924.88;2088281;28;907;-72
2021/06/28 01:38:34;;;;;;;;;;;;;;;24.15;32.41;82966.91;2089034;28;1890;-72
2021/06/28 01:39:34;;;;;;;;;;;;;;;24.15;32.44;82980.91;2088916;28;991;-71
2021/06/28 01:40:35;;;;;;;;;;;;;;;24.15;32.21;82916.88;2081318;28;1212;-71
2021/06/28 01:41:35;;;;;;;;;;;;;;;24.15;32.47;82932.88;2073011;28;1432;-72
2021/06/28 01:42:35;;;;;;;;;;;;;;;24.15;32.35;82934.88;2065114;28;1309;-72
2021/06/28 01:43:36;;;;;;;;;;;;;;;24.15;32.31;82900.88;2069235;28;1385;-72
2021/06/28 01:44:36;;;;;;;;;;;;;;;24.15;32.14;82944.88;2079948;28;1546;-71
2021/06/28 01:45:36;;;;;;;;;;;;;;;24.15;32.17;82938.88;2072816;28;1443;-72
2021/06/28 01:46:36;;;;;;;;;;;;;;;24.15;32.07;82934.88;2064780;28;1338;-71
2021/06/28 01:47:37;;;;;;;;;;;;;;;24.15;32.33;82936.88;2081151;28;898;-71
2021/06/28 01:48:37;;;;;;;;;;;;;;;24.15;32.43;82972.91;2080397;28;1431;-71
2021/06/28 01:49:38;;;;;;;;;;;;;;;24.15;32.46;82964.91;2071666;28;1297;-71
2021/06/28 01:50:38;;;;;;;;;;;;;;;24.15;32.53;82992.91;2070088;28;1387;-73
2021/06/28 01:51:38;;;;;;;;;;;;;;;24.15;32.19;82952.91;2079194;28;762;-71
2021/06/28 01:52:39;;;;;;;;;;;;;;;24.15;32.38;83012.91;2087300;28;893;-71
2021/06/28 01:53:39;;;;;;;;;;;;;;;24.15;32.40;82964.91;2079406;28;1024;-71
2021/06/28 01:54:39;;;;;;;;;;;;;;;24.15;32.47;83008.91;2079394;28;866;-71
2021/06/28 01:55:40;;;;;;;;;;;;;;;24.15;32.47;82968.91;2071174;28;1163;-73
2021/06/28 01:56:40;;;;;;;;;;;;;;;24.15;32.62;83078.91;2062521;28;1213;-72
2021/06/28 01:57:43;;;;;;;;;;;;;;;24.15;32.44;82988.91;2071097;28;903;-72
2021/06/28 01:58:43;;;;;;;;;;;;;;;24.15;32.51;82962.91;2087658;28;1894;-72
2021/06/28 01:59:44;;;;;;;;;;;;;;;24.15;32.53;82984.91;2087547;28;1332;-72
2021/06/28 02:00:45;;;;;;;;;;;;;;;24.15;32.52;83036.91;2087934;28;963;-73
2021/06/28 02:01:45;;;;;;;;;;;;;;;24.15;32.38;83008.91;2087550;28;891;-71
2021/06/28 02:02:55;;;;;;;;;;;;;;;24.15;32.35;82988.91;2087475;28;821;-71
2021/06/28 02:03:55;;;;;;;;;;;;;;;24.15;32.60;83012.91;2088104;28;1341;-71
2021/06/28 02:04:56;;;;;;;;;;;;;;;24.15;33.02;83050.91;2087806;28;845;-72
2021/06/28 02:05:56;;;;;;;;;;;;;;;24.15;32.51;82916.88;2087213;28;1145;-73
2021/06/28 02:06:57;;;;;;;;;;;;;;;24.15;32.19;82870.88;2087820;28;840;-71
2021/06/28 02:07:57;;;;;;;;;;;;;;;24.15;32.07;82862.88;2079299;28;1083;-72
2021/06/28 02:08:57;;;;;;;;;;;;;;;24.15;31.81;82796.84;2079359;28;885;-71
2021/06/28 02:09:57;;;;;;;;;;;;;;;24.15;32.17;82858.88;2087754;28;952;-71
2021/06/28 02:10:58;;;;;;;;;;;;;;;24.15;31.98;82844.88;2087751;28;934;-71
2021/06/28 02:11:59;;;;;;;;;;;;;;;24.15;32.07;82840.88;2088022;28;1011;-72
2021/06/28 02:12:59;;;;;;;;;;;;;;;24.15;32.22;82872.88;2087595;28;809;-72
2021/06/28 02:13:59;;;;;;;;;;;;;;;24.15;32.12;82856.88;2079274;28;786;-71
2021/06/28 02:14:59;;;;;;;;;;;;;;;24.15;32.03;82864.88;2087761;28;1090;-71
2021/06/28 02:15:59;;;;;;;;;;;;;;;24.15;31.90;82832.88;2088360;28;1848;-70
2021/06/28 02:17:00;;;;;;;;;;;;;;;24.15;31.79;82788.84;2088056;28;809;-70
2021/06/28 02:18:00;;;;;;;;;;;;;;;24.15;32.04;82856.88;2079505;28;1142;-70
2021/06/28 02:19:00;;;;;;;;;;;;;;;24.15;31.87;82796.84;2071034;28;1899;-71
2021/06/28 02:20:00;;;;;;;;;;;;;;;24.15;31.77;82820.88;2087887;28;1023;-70
2021/06/28 02:21:00;;;;;;;;;;;;;;;24.15;32.02;82848.88;2088448;28;702;-71
2021/06/28 02:22:01;;;;;;;;;;;;;;;24.15;32.12;82898.88;2088007;28;976;-70
2021/06/28 02:23:10;;;;;;;;;;;;;;;24.15;32.36;82962.91;2087729;28;979;-70
2021/06/28 02:24:10;;;;;;;;;;;;;;;24.15;31.80;82860.88;2088312;28;825;-71
2021/06/28 02:25:11;;;;;;;;;;;;;;;24.15;32.00;82826.88;2071954;28;1231;-70
2021/06/28 02:26:11;;;;;;;;;;;;;;;24.15;31.91;82812.88;2071188;28;1186;-71
2021/06/28 02:27:12;;;;;;;;;;;;;;;24.15;31.94;82894.88;2079098;28;1452;-71
2021/06/28 02:28:12;;;;;;;;;;;;;;;24.15;32.13;82910.88;2071295;28;1003;-71
2021/06/28 02:29:12;;;;;;;;;;;;;;;24.15;31.99;82924.88;2078992;28;963;-70
2021/06/28 02:30:13;;;;;;;;;;;;;;;24.15;31.83;82948.88;2079334;28;1019;-70
2021/06/28 02:31:15;;;;;;;;;;;;;;;24.15;32.12;82956.91;2087364;28;1012;-71
2021/06/28 02:32:15;;;;;;;;;;;;;;;24.15;32.12;82914.88;2087507;28;873;-71
2021/06/28 02:33:15;;;;;;;;;;;;;;;24.15;32.63;83082.94;2087210;28;809;-70
2021/06/28 02:34:15;;;;;;;;;;;;;;;24.15;32.77;83102.94;2087492;28;590;-71
2021/06/28 02:35:16;;;;;;;;;;;;;;;24.15;32.94;83120.94;2087219;28;1212;-70
2021/06/28 02:36:17;;;;;;;;;;;;;;;24.15;32.58;83040.91;2087215;28;888;-70
2021/06/28 02:37:17;;;;;;;;;;;;;;;24.15;32.23;82952.91;2079086;28;1259;-71
2021/06/28 02:38:17;;;;;;;;;;;;;;;24.15;32.46;83032.91;2079340;28;765;-70
2021/06/28 02:39:17;;;;;;;;;;;;;;;24.15;32.44;83052.91;2087130;28;1902;-71
2021/06/28 02:40:18;;;;;;;;;;;;;;;24.15;32.61;83080.94;2071030;28;869;-71
2021/06/28 02:41:18;;;;;;;;;;;;;;;24.15;32.71;83138.94;2079168;28;885;-71
2021/06/28 02:42:18;;;;;;;;;;;;;;;24.15;32.86;83162.94;2087457;28;939;-70
2021/06/28 02:43:19;;;;;;;;;;;;;;;24.15;32.96;83158.94;2087442;28;678;-71
2021/06/28 02:44:19;;;;;;;;;;;;;;;24.15;32.88;83132.94;2078896;28;881;-71
2021/06/28 02:45:20;;;;;;;;;;;;;;;24.15;32.79;83108.94;2071060;28;1202;-70
2021/06/28 02:46:20;;;;;;;;;;;;;;;24.15;32.82;83152.94;2086719;28;869;-71
2021/06/28 02:47:21;;;;;;;;;;;;;;;24.15;32.74;83124.94;2079099;28;995;-71
2021/06/28 02:48:21;;;;;;;;;;;;;;;24.15;32.59;83106.94;2078934;28;1227;-71
2021/06/28 02:49:21;;;;;;;;;;;;;;;24.15;32.67;83094.94;2071284;28;872;-71
2021/06/28 02:50:21;;;;;;;;;;;;;;;24.15;32.65;83104.94;2087344;28;849;-70
2021/06/28 02:51:21;;;;;;;;;;;;;;;24.15;32.60;83114.94;2079256;28;1297;-70
2021/06/28 02:52:22;;;;;;;;;;;;;;;24.15;32.63;83088.94;2078945;28;1061;-69
2021/06/28 02:53:22;;;;;;;;;;;;;;;24.15;32.75;83074.91;2079100;28;925;-70
2021/06/28 02:54:22;;;;;;;;;;;;;;;24.15;32.75;83132.94;2078679;28;893;-70
2021/06/28 02:55:22;;;;;;;;;;;;;;;24.15;32.56;83138.94;2087391;28;1206;-70
2021/06/28 02:56:23;;;;;;;;;;;;;;;24.15;32.70;83082.94;2087324;28;967;-70
2021/06/28 02:57:23;;;;;;;;;;;;;;;24.15;32.61;83186.94;2078952;28;1449;-70
2021/06/28 02:58:23;;;;;;;;;;;;;;;24.15;32.89;83168.94;2079055;28;896;-70
2021/06/28 02:59:23;;;;;;;;;;;;;;;24.15;32.78;83184.94;2087260;28;1902;-70
2021/06/28 03:00:23;;;;;;;;;;;;;;;24.15;33.01;83220.97;2079008;28;1329;-71
2021/06/28 03:01:25;;;;;;;;;;;;;;;24.15;33.09;83254.97;2079074;28;909;-70
2021/06/28 03:02:25;;;;;;;;;;;;;;;24.15;33.20;83230.97;2078349;28;1453;-70
2021/06/28 03:03:25;;;;;;;;;;;;;;;24.15;33.11;83204.97;2087264;28;805;-70
2021/06/28 03:04:26;;;;;;;;;;;;;;;24.15;33.28;83256.97;2087133;28;980;-70
2021/06/28 03:05:26;;;;;;;;;;;;;;;24.15;33.21;83236.97;2087873;28;1242;-70
2021/06/28 03:06:26;;;;;;;;;;;;;;;24.15;32.82;83164.94;2086676;28;825;-71
2021/06/28 03:07:27;;;;;;;;;;;;;;;24.15;32.98;83182.94;2079006;28;1075;-71
2021/06/28 03:08:27;;;;;;;;;;;;;;;24.15;32.93;83200.97;2070894;28;892;-70
2021/06/28 03:09:27;;;;;;;;;;;;;;;24.15;32.88;83172.94;2079108;28;865;-71
2021/06/28 03:10:27;;;;;;;;;;;;;;;24.15;32.98;83220.97;2079070;28;773;-71
2021/06/28 03:11:27;;;;;;;;;;;;;;;24.15;32.84;83182.94;2087321;28;782;-71
2021/06/28 03:12:28;;;;;;;;;;;;;;;24.15;32.82;83216.97;2087377;28;1023;-71
2021/06/28 03:13:28;;;;;;;;;;;;;;;24.15;32.94;83224.97;2078630;28;1212;-71
2021/06/28 03:14:28;;;;;;;;;;;;;;;24.15;32.91;83230.97;2070884;28;896;-71
2021/06/28 03:15:28;;;;;;;;;;;;;;;24.15;33.38;83272.97;2077989;28;1552;-71
2021/06/28 03:16:29;;;;;;;;;;;;;;;24.15;33.12;83204.97;2069016;28;1300;-70
2021/06/28 03:17:30;;;;;;;;;;;;;;;24.15;33.17;83276.97;2070711;28;900;-70
2021/06/28 03:18:31;;;;;;;;;;;;;;;24.15;32.81;83242.97;2078793;28;1251;-70
2021/06/28 03:19:31;;;;;;;;;;;;;;;24.15;33.16;83220.97;2062712;28;1965;-70
2021/06/28 03:20:31;;;;;;;;;;;;;;;24.15;33.03;83222.97;2054762;28;956;-70
2021/06/28 03:21:31;;;;;;;;;;;;;;;24.15;33.08;83226.97;2070618;28;836;-70
2021/06/28 03:22:31;;;;;;;;;;;;;;;24.15;33.27;83224.97;2078941;28;1482;-70
2021/06/28 03:23:32;;;;;;;;;;;;;;;24.15;33.03;83258.97;2070607;28;992;-70
2021/06/28 03:24:32;;;;;;;;;;;;;;;24.15;32.94;83222.97;2079054;28;1115;-70
2021/06/28 03:25:32;;;;;;;;;;;;;;;24.15;32.85;83214.97;2087321;28;1280;-71
2021/06/28 03:26:33;;;;;;;;;;;;;;;24.15;32.98;83238.97;2086774;28;1027;-71
2021/06/28 03:27:33;;;;;;;;;;;;;;;24.15;33.01;83272.97;2087797;28;919;-71
2021/06/28 03:28:33;;;;;;;;;;;;;;;24.15;33.26;83294.97;2086686;28;1050;-70
2021/06/28 03:29:33;;;;;;;;;;;;;;;24.15;33.24;83234.97;2087101;28;888;-71
2021/06/28 03:30:34;;;;;;;;;;;;;;;24.15;32.93;83256.97;2086521;28;1093;-71
2021/06/28 03:31:34;;;;;;;;;;;;;;;24.15;32.85;83244.97;2078723;28;1208;-70
2021/06/28 03:32:34;;;;;;;;;;;;;;;24.15;33.09;83280.97;2080151;28;973;-71
2021/06/28 03:33:34;;;;;;;;;;;;;;;24.15;32.84;83206.97;2092473;28;952;-71
2021/06/28 03:34:34;;;;;;;;;;;;;;;24.15;32.88;83238.97;2084707;28;968;-71
2021/06/28 03:35:35;;;;;;;;;;;;;;;24.15;33.32;83294.97;2092731;28;1359;-70
2021/06/28 03:36:35;;;;;;;;;;;;;;;24.15;33.42;83284.97;2084153;28;1009;-70
2021/06/28 03:37:35;;;;;;;;;;;;;;;24.15;33.35;83278.97;2084537;28;696;-70
2021/06/28 03:38:35;;;;;;;;;;;;;;;24.15;33.39;83301.00;2093683;28;1470;-70
2021/06/28 03:39:36;;;;;;;;;;;;;;;24.15;33.38;83270.97;2092696;28;1906;-71
2021/06/28 03:40:36;;;;;;;;;;;;;;;24.15;33.36;83309.00;2085001;28;1127;-71
2021/06/28 03:41:36;;;;;;;;;;;;;;;24.15;33.30;83301.00;2085436;28;1083;-72
2021/06/28 03:42:37;;;;;;;;;;;;;;;24.15;33.70;83335.00;2085643;28;929;-71
2021/06/28 03:43:37;;;;;;;;;;;;;;;24.15;33.30;83309.00;2085642;28;857;-72
2021/06/28 03:44:38;;;;;;;;;;;;;;;24.15;33.54;83349.00;2084923;28;1043;-71
2021/06/28 03:45:38;;;;;;;;;;;;;;;24.15;33.42;83339.00;2093461;28;1215;-71
2021/06/28 03:46:38;;;;;;;;;;;;;;;24.15;33.39;83305.00;2084068;28;1175;-71
2021/06/28 03:47:38;;;;;;;;;;;;;;;24.15;32.49;83329.00;2085230;28;869;-71
2021/06/28 03:48:38;;;;;;;;;;;;;;;24.15;33.35;83309.00;2092587;28;1075;-71
2021/06/28 03:49:39;;;;;;;;;;;;;;;24.15;33.63;83353.00;2093718;28;991;-71
2021/06/28 03:50:40;;;;;;;;;;;;;;;24.15;33.42;83327.00;2094475;28;982;-70
2021/06/28 03:51:40;;;;;;;;;;;;;;;24.15;33.29;83313.00;2084912;28;1457;-69
2021/06/28 03:52:40;;;;;;;;;;;;;;;24.15;33.35;83321.00;2076705;28;964;-70
2021/06/28 03:53:40;;;;;;;;;;;;;;;24.15;33.76;83321.00;2084806;28;984;-70
2021/06/28 03:54:40;;;;;;;;;;;;;;;24.15;33.86;83349.00;2079738;28;837;-71
2021/06/28 03:55:41;;;;;;;;;;;;;;;24.15;33.75;83339.00;2079739;28;1207;-71
2021/06/28 03:56:41;;;;;;;;;;;;;;;24.15;33.49;83337.00;2086901;28;821;-71
2021/06/28 03:57:41;;;;;;;;;;;;;;;24.15;33.93;83351.00;2087649;28;991;-71
2021/06/28 03:58:43;;;;;;;;;;;;;;;24.15;33.89;83347.00;2088169;28;1902;-71
2021/06/28 03:59:43;;;;;;;;;;;;;;;24.15;33.47;83335.00;2080899;28;1324;-72
2021/06/28 04:00:45;;;;;;;;;;;;;;;24.15;33.72;83367.00;2072932;28;1359;-71
2021/06/28 04:01:45;;;;;;;;;;;;;;;24.15;33.78;83345.00;2064892;28;1264;-72
2021/06/28 04:02:45;;;;;;;;;;;;;;;24.15;33.71;83303.00;2072880;28;1176;-71
2021/06/28 04:03:46;;;;;;;;;;;;;;;24.15;33.81;83373.00;2072464;28;1197;-73
2021/06/28 04:04:49;;;;;;;;;;;;;;;24.15;33.89;83353.00;2072745;28;1272;-72
2021/06/28 04:05:50;;;;;;;;;;;;;;;24.15;33.14;83343.00;2080990;28;1450;-72
2021/06/28 04:06:50;;;;;;;;;;;;;;;24.15;33.68;83321.00;2072228;28;1258;-73
2021/06/28 04:07:50;;;;;;;;;;;;;;;24.15;33.37;83309.00;2072576;28;1186;-72
2021/06/28 04:08:50;;;;;;;;;;;;;;;24.15;33.69;83339.00;2064272;28;1202;-72
2021/06/28 04:09:50;;;;;;;;;;;;;;;24.15;33.49;83309.00;2072405;28;1241;-72
2021/06/28 04:10:52;;;;;;;;;;;;;;;24.15;33.61;83311.00;2080612;28;1276;-73
2021/06/28 04:11:52;;;;;;;;;;;;;;;24.15;33.67;83323.00;2072640;28;1368;-72
2021/06/28 04:12:53;;;;;;;;;;;;;;;24.15;33.63;83329.00;2080699;28;833;-72
2021/06/28 04:13:53;;;;;;;;;;;;;;;24.15;33.68;83365.00;2072417;28;1460;-72
2021/06/28 04:14:53;;;;;;;;;;;;;;;24.15;33.54;83367.00;2065827;28;1304;-72
2021/06/28 04:15:53;;;;;;;;;;;;;;;24.15;33.42;83335.00;2073868;28;1616;-71
2021/06/28 04:16:55;;;;;;;;;;;;;;;24.15;33.49;83321.00;2073649;28;1338;-71
2021/06/28 04:17:55;;;;;;;;;;;;;;;24.15;33.80;83315.00;2065958;28;1280;-71
2021/06/28 04:18:55;;;;;;;;;;;;;;;24.15;33.94;83349.00;2074004;28;1977;-72
2021/06/28 04:19:56;;;;;;;;;;;;;;;24.15;34.09;83379.00;2081706;28;1441;-73
2021/06/28 04:20:56;;;;;;;;;;;;;;;24.15;33.99;83329.00;2080782;28;889;-73
2021/06/28 04:21:56;;;;;;;;;;;;;;;24.15;33.58;83345.00;2080532;28;879;-73
2021/06/28 04:22:56;;;;;;;;;;;;;;;24.15;33.84;83325.00;2088826;28;943;-73
2021/06/28 04:23:57;;;;;;;;;;;;;;;24.15;33.88;83361.00;2088711;28;1178;-72
2021/06/28 04:24:57;;;;;;;;;;;;;;;24.15;33.83;83347.00;2080392;28;810;-71
2021/06/28 04:25:58;;;;;;;;;;;;;;;24.15;33.88;83274.97;2080272;28;1283;-72
2021/06/28 04:26:58;;;;;;;;;;;;;;;24.15;33.60;83280.97;2080076;28;841;-73
2021/06/28 04:27:58;;;;;;;;;;;;;;;24.15;33.67;83236.97;2080473;28;940;-74
2021/06/28 04:28:58;;;;;;;;;;;;;;;24.15;33.80;83268.97;2080619;28;877;-72
2021/06/28 04:29:59;;;;;;;;;;;;;;;24.15;33.63;83298.97;2080295;28;1467;-73
2021/06/28 04:30:59;;;;;;;;;;;;;;;24.15;34.05;83311.00;2072082;28;1416;-71
2021/06/28 04:31:59;;;;;;;;;;;;;;;24.15;34.15;83315.00;2080315;28;864;-72
2021/06/28 04:32:59;;;;;;;;;;;;;;;24.15;33.93;83361.00;2080431;28;1405;-72
2021/06/28 04:34:00;;;;;;;;;;;;;;;24.15;33.89;83349.00;2080360;28;884;-73
2021/06/28 04:35:00;;;;;;;;;;;;;;;24.15;33.56;83321.00;2080549;28;631;-73
2021/06/28 04:36:00;;;;;;;;;;;;;;;24.15;33.52;83284.97;2080130;28;1294;-72
2021/06/28 04:37:00;;;;;;;;;;;;;;;24.15;33.67;83286.97;2079755;28;872;-72
2021/06/28 04:38:00;;;;;;;;;;;;;;;24.15;33.34;83228.97;2080402;28;999;-71
2021/06/28 04:39:01;;;;;;;;;;;;;;;24.15;33.42;83270.97;2080403;28;1934;-74
2021/06/28 04:40:04;;;;;;;;;;;;;;;24.15;33.56;83264.97;2088723;28;857;-73
2021/06/28 04:41:04;;;;;;;;;;;;;;;24.15;33.68;83260.97;2080559;28;972;-72
2021/06/28 04:42:05;;;;;;;;;;;;;;;24.15;33.75;83262.97;2080453;28;987;-72
2021/06/28 04:43:05;;;;;;;;;;;;;;;24.15;33.58;83256.97;2080297;28;797;-72
2021/06/28 04:44:05;;;;;;;;;;;;;;;24.15;33.70;83234.97;2080400;28;743;-72
2021/06/28 04:45:06;;;;;;;;;;;;;;;24.15;33.67;83274.97;2080265;28;917;-71
2021/06/28 04:46:06;;;;;;;;;;;;;;;24.15;33.71;83260.97;2079972;28;1408;-72
2021/06/28 04:47:06;;;;;;;;;;;;;;;24.15;33.46;83256.97;2079976;28;1055;-72
2021/06/28 04:48:09;;;;;;;;;;;;;;;24.15;33.65;83311.00;2080174;28;964;-72
2021/06/28 04:49:10;;;;;;;;;;;;;;;24.15;33.37;83254.97;2080645;28;883;-73
2021/06/28 04:50:10;;;;;;;;;;;;;;;24.15;33.66;83258.97;2088649;28;842;-74
2021/06/28 04:51:10;;;;;;;;;;;;;;;24.15;33.20;83212.97;2080117;28;1205;-72
2021/06/28 04:52:10;;;;;;;;;;;;;;;24.15;33.36;83258.97;2080100;28;646;-71
2021/06/28 04:53:10;;;;;;;;;;;;;;;24.15;33.17;83244.97;2088489;28;1327;-72
2021/06/28 04:54:11;;;;;;;;;;;;;;;24.15;33.55;83250.97;2080278;28;920;-75
2021/06/28 04:55:12;;;;;;;;;;;;;;;24.15;33.26;83242.97;2080069;28;1213;-73
2021/06/28 04:56:12;;;;;;;;;;;;;;;24.15;33.52;83268.97;2079828;28;720;-73
2021/06/28 04:57:16;;;;;;;;;;;;;;;24.15;33.28;83254.97;2088105;28;1502;-71
2021/06/28 04:58:16;;;;;;;;;;;;;;;24.15;33.56;83284.97;2080795;28;919;-72
2021/06/28 04:59:17;;;;;;;;;;;;;;;24.15;33.57;83276.97;2072229;28;1918;-72
2021/06/28 05:00:18;;;;;;;;;;;;;;;24.15;33.93;83333.00;2071888;28;1473;-72
2021/06/28 05:01:18;;;;;;;;;;;;;;;24.15;33.83;83284.97;2080075;28;876;-72
2021/06/28 05:02:18;;;;;;;;;;;;;;;24.15;33.96;83224.97;2080209;28;1011;-72
2021/06/28 05:03:19;;;;;;;;;;;;;;;24.15;33.81;83236.97;2071691;28;1013;-73
2021/06/28 05:04:19;;;;;;;;;;;;;;;24.15;34.03;83250.97;2088298;28;881;-73
2021/06/28 05:05:19;;;;;;;;;;;;;;;24.15;34.34;83349.00;2088897;28;1700;-73
2021/06/28 05:06:19;;;;;;;;;;;;;;;24.15;34.26;83325.00;2079628;28;1244;-72
2021/06/28 05:07:19;;;;;;;;;;;;;;;24.15;34.25;83327.00;2080149;28;833;-73
2021/06/28 05:08:20;;;;;;;;;;;;;;;24.15;34.28;83335.00;2088112;28;992;-73
2021/06/28 05:09:20;;;;;;;;;;;;;;;24.15;34.39;83355.00;2088460;28;1042;-74
2021/06/28 05:10:20;;;;;;;;;;;;;;;24.15;33.92;83311.00;2089361;28;871;-72
2021/06/28 05:11:22;;;;;;;;;;;;;;;24.15;34.22;83276.97;2088362;28;988;-72
2021/06/28 05:12:22;;;;;;;;;;;;;;;24.15;34.06;83337.00;2088429;28;880;-73
2021/06/28 05:13:23;;;;;;;;;;;;;;;24.15;34.12;83301.00;2088237;28;971;-73
2021/06/28 05:14:24;;;;;;;;;;;;;;;24.15;34.23;83305.00;2087885;28;893;-73
2021/06/28 05:15:24;;;;;;;;;;;;;;;24.15;33.91;83290.97;2079881;28;1401;-71
2021/06/28 05:16:24;;;;;;;;;;;;;;;24.15;33.84;83305.00;2063402;28;874;-72
2021/06/28 05:17:25;;;;;;;;;;;;;;;24.15;34.07;83286.97;2078165;28;995;-71
2021/06/28 05:18:25;;;;;;;;;;;;;;;24.15;34.06;83254.97;2088884;28;814;-72
2021/06/28 05:19:25;;;;;;;;;;;;;;;24.15;33.60;83274.97;2088113;28;1983;-72
2021/06/28 05:20:25;;;;;;;;;;;;;;;24.15;33.81;83280.97;2088178;28;980;-72
2021/06/28 05:21:25;;;;;;;;;;;;;;;24.15;34.02;83315.00;2079903;28;862;-71